Terminal Aerodrome Forecast
Issued by NWS

Home | Current Version | Previous Version | Text Only | Print | Product List | Glossary On
Versions: 1 2 3 4 5 6 7 8 9 10 11 12
000
FTUS42 TJSJ 220531
TAFJPS
TAF
TJPS 220531Z 2206/2306 05002KT P6SM FEW030 BKN200
     FM221400 14012KT P6SM FEW030
     FM222200 06003KT P6SM FEW030
      AMD NOT SKED 2212/2303=

USA.gov is the U.S. government's official web portal to all federal, state and local government web resources and services.